Time;durP1;ratioP1;P1;durP2;ratioP2;P2;SDS_P1;SDS_P2;PMS_P1;PMS_P2;Temp;Humidity;BMP_temperature;BMP_pressure;BME280_temperature;BME280_humidity;BME280_pressure;Samples;Min_cycle;Max_cycle;Signal;HPM_P1;HPM_P2
2020/12/13 00:02:15;;;;;;;15.37;8.10;;;4.50;99.90;;;;;;5072841;28;20289;-75
2020/12/13 00:04:41;;;;;;;16.77;7.97;;;4.60;99.90;;;;;;5071980;28;20646;-76
2020/12/13 00:07:09;;;;;;;16.33;6.80;;;4.60;99.90;;;;;;5052860;28;20202;-76
2020/12/13 00:09:35;;;;;;;16.63;7.20;;;4.70;99.90;;;;;;5052876;28;20784;-76
2020/12/13 00:12:03;;;;;;;16.30;7.60;;;4.70;99.90;;;;;;5052452;28;20321;-76
2020/12/13 00:14:29;;;;;;;14.63;6.77;;;4.70;99.90;;;;;;5063118;28;20196;-76
2020/12/13 00:16:56;;;;;;;13.83;6.37;;;4.70;99.90;;;;;;5052286;28;20263;-75
2020/12/13 00:19:22;;;;;;;15.20;7.40;;;4.80;99.90;;;;;;5052787;28;20238;-76
2020/12/13 00:21:50;;;;;;;11.53;6.43;;;4.80;99.90;;;;;;5052814;28;20226;-75
2020/12/13 00:24:17;;;;;;;12.13;6.73;;;4.80;99.90;;;;;;5067398;28;20666;-76
2020/12/13 00:26:44;;;;;;;13.83;6.00;;;4.80;99.90;;;;;;5071920;28;20685;-75
2020/12/13 00:29:11;;;;;;;15.13;6.77;;;4.90;99.90;;;;;;5056195;28;20274;-76
2020/12/13 00:31:38;;;;;;;15.20;6.10;;;4.90;99.90;;;;;;5052121;28;20238;-76
2020/12/13 00:34:04;;;;;;;15.97;6.37;;;5.00;99.90;;;;;;5052166;28;20235;-75
2020/12/13 00:36:31;;;;;;;14.33;6.33;;;5.00;99.90;;;;;;5052159;28;20314;-75
2020/12/13 00:38:57;;;;;;;13.67;6.23;;;4.90;99.90;;;;;;5059464;28;20233;-75
2020/12/13 00:41:24;;;;;;;15.60;5.80;;;5.00;99.90;;;;;;5072317;28;20237;-76
2020/12/13 00:43:51;;;;;;;14.17;6.27;;;5.00;99.90;;;;;;5071798;28;20250;-76
2020/12/13 00:46:17;;;;;;;16.27;6.27;;;5.00;99.90;;;;;;5072049;28;20226;-75
2020/12/13 00:48:43;;;;;;;13.73;6.10;;;5.00;99.90;;;;;;5071523;28;20693;-76
2020/12/13 00:51:10;;;;;;;14.07;6.80;;;5.10;99.90;;;;;;5071894;28;20229;-75
2020/12/13 00:53:36;;;;;;;17.57;6.77;;;5.10;99.90;;;;;;5062200;28;20235;-76
2020/12/13 00:56:03;;;;;;;13.27;6.67;;;5.10;99.90;;;;;;5051472;28;20711;-76
2020/12/13 00:58:30;;;;;;;14.20;7.07;;;5.20;99.90;;;;;;5051813;28;20235;-76
2020/12/13 01:00:57;;;;;;;13.10;6.13;;;5.20;99.90;;;;;;5051678;28;20231;-75
2020/12/13 01:03:23;;;;;;;10.63;6.20;;;5.30;99.90;;;;;;5057877;28;20227;-75
2020/12/13 01:05:50;;;;;;;12.33;6.33;;;5.30;99.90;;;;;;5065988;28;20210;-75
2020/12/13 01:08:16;;;;;;;14.23;6.37;;;5.30;99.90;;;;;;5077128;28;20230;-75
2020/12/13 01:10:43;;;;;;;14.63;7.13;;;5.30;99.90;;;;;;5075952;28;20668;-75
2020/12/13 01:13:09;;;;;;;14.30;6.70;;;5.30;99.90;;;;;;5071257;28;20238;-74
2020/12/13 01:15:36;;;;;;;14.00;6.40;;;5.30;99.90;;;;;;5070013;28;20273;-75
2020/12/13 01:18:03;;;;;;;21.07;6.20;;;5.30;99.90;;;;;;5077800;28;20234;-75
2020/12/13 01:20:29;;;;;;;14.63;9.27;;;5.30;99.90;;;;;;5078518;28;20227;-75
2020/12/13 01:22:55;;;;;;;16.40;9.20;;;5.20;99.90;;;;;;5073073;28;20258;-75
2020/12/13 01:25:22;;;;;;;14.73;8.97;;;5.10;99.90;;;;;;5076145;28;20241;-76
2020/12/13 01:27:48;;;;;;;12.73;8.37;;;5.10;99.90;;;;;;5074990;28;20311;-75
2020/12/13 01:30:15;;;;;;;17.33;6.87;;;5.10;99.90;;;;;;5077469;28;20234;-74
2020/12/13 01:32:43;;;;;;;13.77;7.07;;;5.20;99.90;;;;;;5057842;28;20620;-75
2020/12/13 01:35:11;;;;;;;16.30;8.17;;;5.10;99.90;;;;;;5077999;28;20204;-75
2020/12/13 01:37:37;;;;;;;14.17;7.63;;;5.10;99.90;;;;;;5077582;28;20309;-75
2020/12/13 01:40:05;;;;;;;14.00;6.90;;;5.10;99.90;;;;;;5078386;28;20324;-75
2020/12/13 01:42:38;;;;;;;14.20;7.17;;;5.10;99.90;;;;;;5078082;28;20201;-75
2020/12/13 01:45:06;;;;;;;15.07;6.23;;;5.20;99.90;;;;;;5078344;28;20206;-75
2020/12/13 01:47:33;;;;;;;17.10;7.10;;;5.20;99.90;;;;;;5077988;28;20223;-74
2020/12/13 01:50:00;;;;;;;13.77;6.80;;;5.30;99.90;;;;;;5078186;28;20220;-75
2020/12/13 01:52:44;;;;;;;14.50;6.07;;;5.30;99.90;;;;;;5062038;28;20197;-74
2020/12/13 01:55:12;;;;;;;14.67;5.90;;;5.40;99.90;;;;;;5077960;28;20199;-75
2020/12/13 01:57:40;;;;;;;11.00;5.67;;;5.40;99.90;;;;;;5077733;28;20223;-74
2020/12/13 02:00:09;;;;;;;14.83;6.40;;;5.50;99.90;;;;;;5077356;28;20206;-75
2020/12/13 02:02:40;;;;;;;14.23;5.80;;;5.50;99.90;;;;;;5077468;28;20238;-75
2020/12/13 02:05:09;;;;;;;12.13;5.43;;;5.50;99.90;;;;;;5077236;28;20231;-75
2020/12/13 02:07:37;;;;;;;11.63;6.07;;;5.50;99.90;;;;;;5076530;28;20724;-74
2020/12/13 02:10:06;;;;;;;12.77;6.13;;;5.60;99.90;;;;;;5078158;28;20232;-75
2020/12/13 02:12:33;;;;;;;12.23;5.83;;;5.60;99.90;;;;;;5077868;28;20282;-76
2020/12/13 02:15:00;;;;;;;12.47;5.30;;;5.60;99.90;;;;;;5076626;28;20253;-75
2020/12/13 02:17:26;;;;;;;15.53;5.77;;;5.60;99.90;;;;;;5073795;28;20215;-75
2020/12/13 02:19:53;;;;;;;15.17;5.33;;;5.60;99.90;;;;;;5060622;28;20253;-75
2020/12/13 02:22:21;;;;;;;12.90;5.67;;;5.60;99.90;;;;;;5061729;28;20289;-75
2020/12/13 02:24:48;;;;;;;14.70;5.40;;;5.60;99.90;;;;;;5069847;28;20207;-75
2020/12/13 02:27:15;;;;;;;15.63;6.07;;;5.60;99.90;;;;;;5062921;28;20723;-75
2020/12/13 02:29:41;;;;;;;11.53;5.70;;;5.60;99.90;;;;;;5072976;28;20238;-75
2020/12/13 02:32:08;;;;;;;12.73;5.70;;;5.60;99.90;;;;;;5074075;28;20340;-74
2020/12/13 02:34:34;;;;;;;13.17;5.90;;;5.60;99.90;;;;;;5074253;28;20231;-75
2020/12/13 02:37:00;;;;;;;13.90;5.43;;;5.60;99.90;;;;;;5074046;28;20262;-75
2020/12/13 02:39:28;;;;;;;11.27;5.60;;;5.60;99.90;;;;;;5056495;28;20274;-75
2020/12/13 02:41:59;;;;;;;13.43;5.77;;;5.60;99.90;;;;;;5054085;28;20235;-74
2020/12/13 02:44:26;;;;;;;11.40;5.73;;;5.50;99.90;;;;;;5068803;28;20199;-74
2020/12/13 02:46:52;;;;;;;11.80;5.73;;;5.60;99.90;;;;;;5073593;28;20237;-75
2020/12/13 02:49:19;;;;;;;11.33;5.33;;;5.60;99.90;;;;;;5064770;28;20227;-74
2020/12/13 02:51:45;;;;;;;13.57;5.30;;;5.60;99.90;;;;;;5054956;28;20760;-75
2020/12/13 02:54:12;;;;;;;14.30;6.13;;;5.60;99.90;;;;;;5059065;28;20238;-75
2020/12/13 02:56:41;;;;;;;13.87;6.10;;;5.60;99.90;;;;;;5063832;28;20271;-75
2020/12/13 02:59:08;;;;;;;14.57;5.73;;;5.60;99.90;;;;;;5073411;28;20237;-74
2020/12/13 03:01:35;;;;;;;11.50;5.57;;;5.60;99.90;;;;;;5073361;28;20655;-75
2020/12/13 03:04:01;;;;;;;12.53;5.33;;;5.60;99.90;;;;;;5073951;28;20244;-75
2020/12/13 03:06:28;;;;;;;14.60;5.37;;;5.60;99.90;;;;;;5073649;28;20646;-75
2020/12/13 03:08:55;;;;;;;11.93;5.23;;;5.60;99.90;;;;;;5072620;28;20235;-74
2020/12/13 03:11:22;;;;;;;17.50;5.30;;;5.60;99.90;;;;;;5066387;28;20264;-75
2020/12/13 03:13:50;;;;;;;12.87;5.40;;;5.60;99.90;;;;;;5069259;28;20197;-75
2020/12/13 03:16:16;;;;;;;11.97;5.23;;;5.60;99.90;;;;;;5073590;28;20264;-75
2020/12/13 03:18:43;;;;;;;14.50;4.73;;;5.60;99.90;;;;;;5072969;28;20229;-74
2020/12/13 03:21:09;;;;;;;13.73;5.17;;;5.60;99.90;;;;;;5072081;28;20234;-75
2020/12/13 03:23:36;;;;;;;10.13;4.67;;;5.60;99.90;;;;;;5064465;28;20239;-74
2020/12/13 03:26:02;;;;;;;12.00;4.83;;;5.60;99.90;;;;;;5063398;28;20307;-75
2020/12/13 03:28:29;;;;;;;10.37;4.20;;;5.70;99.90;;;;;;5061998;28;20638;-74
2020/12/13 03:30:56;;;;;;;9.87;3.97;;;5.70;99.90;;;;;;5073065;28;20237;-75
2020/12/13 03:33:22;;;;;;;11.60;4.20;;;5.70;99.90;;;;;;5073394;28;20242;-75
2020/12/13 03:35:49;;;;;;;9.93;4.60;;;5.70;99.90;;;;;;5072917;28;20259;-75
2020/12/13 03:38:16;;;;;;;11.53;4.10;;;5.70;99.90;;;;;;5066001;28;20200;-75
2020/12/13 03:40:43;;;;;;;12.60;4.37;;;5.70;99.90;;;;;;5053253;28;20315;-75
2020/12/13 03:43:09;;;;;;;9.83;4.33;;;5.70;99.90;;;;;;5053001;28;20230;-74
2020/12/13 03:45:36;;;;;;;15.07;4.60;;;5.70;99.90;;;;;;5071319;28;20219;-75
2020/12/13 03:48:04;;;;;;;11.40;3.97;;;5.70;99.90;;;;;;5071897;28;20236;-75
2020/12/13 03:50:38;;;;;;;9.60;3.53;;;5.80;99.90;;;;;;5073084;28;20237;-74
2020/12/13 03:53:09;;;;;;;11.13;3.80;;;5.80;99.90;;;;;;5066138;28;20202;-75
2020/12/13 03:55:36;;;;;;;9.03;3.90;;;5.90;99.90;;;;;;5052724;28;20822;-75
2020/12/13 03:58:03;;;;;;;9.27;3.80;;;5.90;99.90;;;;;;5059270;28;20199;-75
2020/12/13 04:00:29;;;;;;;9.03;3.47;;;5.90;99.90;;;;;;5072843;28;20256;-75
2020/12/13 04:02:56;;;;;;;9.73;3.83;;;5.90;99.90;;;;;;5057800;28;20264;-75
2020/12/13 04:05:24;;;;;;;8.40;3.83;;;5.90;99.90;;;;;;5053884;28;20682;-75
2020/12/13 04:07:51;;;;;;;10.27;4.00;;;5.90;99.90;;;;;;5055909;28;20674;-74
2020/12/13 04:10:19;;;;;;;13.67;4.17;;;6.00;99.90;;;;;;5055685;28;20266;-75
2020/12/13 04:12:46;;;;;;;11.27;3.80;;;6.00;99.90;;;;;;5072360;28;20245;-75
2020/12/13 04:15:12;;;;;;;12.97;4.23;;;6.00;99.90;;;;;;5070310;28;20238;-74
2020/12/13 04:17:39;;;;;;;13.50;4.27;;;6.00;99.90;;;;;;5059332;28;20256;-75
2020/12/13 04:20:07;;;;;;;13.40;4.37;;;6.00;99.90;;;;;;5052385;28;20228;-75
2020/12/13 04:22:35;;;;;;;10.53;4.17;;;6.00;99.90;;;;;;5054176;28;20203;-76
2020/12/13 04:25:01;;;;;;;14.60;4.03;;;6.00;99.90;;;;;;5071296;28;20627;-75
2020/12/13 04:27:27;;;;;;;10.67;4.80;;;6.00;99.90;;;;;;5070391;28;20235;-75
2020/12/13 04:29:54;;;;;;;13.10;5.20;;;6.00;99.90;;;;;;5052310;28;20236;-74
2020/12/13 04:32:21;;;;;;;11.27;4.60;;;6.00;99.90;;;;;;5052138;28;20621;-75
2020/12/13 04:34:48;;;;;;;11.30;4.70;;;6.00;99.90;;;;;;5052144;28;20296;-76
2020/12/13 04:37:14;;;;;;;10.60;4.70;;;6.00;99.90;;;;;;5051841;28;20655;-74
2020/12/13 04:39:42;;;;;;;8.97;4.20;;;6.00;99.90;;;;;;5051508;28;20321;-75
2020/12/13 04:42:08;;;;;;;12.00;5.33;;;6.00;99.90;;;;;;5052168;28;20262;-75
2020/12/13 04:44:36;;;;;;;12.83;4.70;;;6.00;99.90;;;;;;5055608;28;20192;-75
2020/12/13 04:47:05;;;;;;;12.03;4.20;;;6.10;99.90;;;;;;5072061;28;20235;-75
2020/12/13 04:49:32;;;;;;;11.27;4.57;;;6.10;99.90;;;;;;5071573;28;20230;-75
2020/12/13 04:52:00;;;;;;;10.93;4.80;;;6.10;99.90;;;;;;5072187;28;20208;-76
2020/12/13 04:54:28;;;;;;;12.23;4.90;;;6.10;99.90;;;;;;5056862;28;20740;-75
2020/12/13 04:56:58;;;;;;;10.27;4.40;;;6.10;99.90;;;;;;5070762;28;20725;-76
2020/12/13 04:59:25;;;;;;;11.83;5.13;;;6.10;99.90;;;;;;5071905;28;20241;-76
2020/12/13 05:01:53;;;;;;;10.57;4.80;;;6.10;99.90;;;;;;5071885;28;20241;-76
2020/12/13 05:04:19;;;;;;;12.03;5.10;;;6.10;99.90;;;;;;5071664;28;20254;-76
2020/12/13 05:06:47;;;;;;;13.10;5.23;;;6.10;99.90;;;;;;5072182;28;20231;-76
2020/12/13 05:09:14;;;;;;;14.40;5.03;;;6.10;99.90;;;;;;5056246;28;20254;-76
2020/12/13 05:11:41;;;;;;;11.33;4.73;;;6.10;99.90;;;;;;5051783;28;20615;-76
2020/12/13 05:14:08;;;;;;;12.77;5.00;;;6.10;99.90;;;;;;5059078;28;20388;-76
2020/12/13 05:16:35;;;;;;;12.27;5.23;;;6.10;99.90;;;;;;5071436;28;20268;-76
2020/12/13 05:19:01;;;;;;;10.83;5.10;;;6.20;99.90;;;;;;5071719;28;20262;-76
2020/12/13 05:21:28;;;;;;;11.83;5.17;;;6.20;99.90;;;;;;5071604;28;20807;-76
2020/12/13 05:23:54;;;;;;;10.47;5.40;;;6.20;99.90;;;;;;5070495;28;20638;-76
2020/12/13 05:26:22;;;;;;;14.00;5.43;;;6.30;99.90;;;;;;5067141;28;20261;-76
2020/12/13 05:28:51;;;;;;;10.67;5.57;;;6.20;99.90;;;;;;5071232;28;20277;-76
2020/12/13 05:31:22;;;;;;;15.90;5.33;;;6.20;99.90;;;;;;5071578;28;20235;-76
2020/12/13 05:33:51;;;;;;;13.87;5.90;;;6.30;99.90;;;;;;5071256;28;20213;-75
2020/12/13 05:36:18;;;;;;;12.13;5.60;;;6.30;99.90;;;;;;5071055;28;20232;-75
2020/12/13 05:38:46;;;;;;;15.20;5.70;;;6.30;99.90;;;;;;5070390;28;20254;-76
2020/12/13 05:41:16;;;;;;;13.17;5.73;;;6.30;99.90;;;;;;5071515;28;20237;-76
2020/12/13 05:43:47;;;;;;;14.23;5.40;;;6.30;99.90;;;;;;5069806;28;20248;-75
2020/12/13 05:49:16;;;;;;;11.20;6.00;;;6.40;99.90;;;;;;5055633;28;20239;-76
2020/12/13 05:51:44;;;;;;;15.23;6.03;;;6.40;99.90;;;;;;5056908;28;20285;-75
2020/12/13 05:54:19;;;;;;;13.40;5.97;;;6.40;99.90;;;;;;5074284;28;20200;-76
2020/12/13 05:56:49;;;;;;;12.37;5.97;;;6.40;99.90;;;;;;5071611;28;20233;-76
2020/12/13 05:59:15;;;;;;;12.83;5.93;;;6.40;99.90;;;;;;5055280;28;20230;-76
2020/12/13 06:01:44;;;;;;;12.63;6.20;;;6.50;99.90;;;;;;5055125;28;20233;-76
2020/12/13 06:04:15;;;;;;;11.57;5.20;;;6.50;99.90;;;;;;5055192;28;20234;-76
2020/12/13 06:06:43;;;;;;;14.23;5.80;;;6.50;99.90;;;;;;5054666;28;20546;-76
2020/12/13 06:09:11;;;;;;;13.37;6.17;;;6.50;99.90;;;;;;5069782;28;20238;-76
2020/12/13 06:11:43;;;;;;;12.40;5.47;;;6.50;99.90;;;;;;5073252;28;20300;-76
2020/12/13 06:14:12;;;;;;;11.93;6.07;;;6.50;99.90;;;;;;5074871;28;20236;-75
2020/12/13 06:16:39;;;;;;;11.17;5.73;;;6.50;99.90;;;;;;5074788;28;20306;-76
2020/12/13 06:19:07;;;;;;;13.93;6.53;;;6.50;99.90;;;;;;5074865;28;20233;-76
2020/12/13 06:21:34;;;;;;;15.40;5.63;;;6.60;99.90;;;;;;5074778;28;20276;-76
2020/12/13 06:24:02;;;;;;;13.17;5.27;;;6.60;99.90;;;;;;5072516;28;20237;-76
2020/12/13 06:26:29;;;;;;;11.37;4.63;;;6.70;99.90;;;;;;5074271;28;20217;-76
2020/12/13 06:28:57;;;;;;;11.00;4.70;;;6.80;99.90;;;;;;5070681;28;20259;-76
2020/12/13 06:31:24;;;;;;;13.63;4.60;;;6.80;99.90;;;;;;5074859;28;20258;-76
2020/12/13 06:33:51;;;;;;;9.43;4.33;;;6.80;99.90;;;;;;5074070;28;20711;-76
2020/12/13 06:36:23;;;;;;;12.73;4.40;;;6.80;99.90;;;;;;5059095;28;20246;-76
2020/12/13 06:38:53;;;;;;;10.53;4.50;;;6.80;99.90;;;;;;5073665;28;20208;-76
2020/12/13 06:41:23;;;;;;;9.13;4.13;;;6.80;99.90;;;;;;5073739;28;20216;-76
2020/12/13 06:44:04;;;;;;;7.33;3.80;;;6.80;99.90;;;;;;5073330;28;20202;-76
2020/12/13 06:46:31;;;;;;;7.50;3.80;;;6.90;99.90;;;;;;5074458;28;20232;-76
2020/12/13 06:48:59;;;;;;;8.30;3.57;;;6.90;99.90;;;;;;5073985;28;20236;-76
2020/12/13 06:51:28;;;;;;;8.23;3.77;;;6.90;99.90;;;;;;5074030;28;20211;-76
2020/12/13 06:53:56;;;;;;;7.73;3.80;;;6.90;99.90;;;;;;5061174;28;20234;-76
2020/12/13 06:56:23;;;;;;;7.40;3.80;;;6.90;99.90;;;;;;5057549;28;20294;-76
2020/12/13 06:58:55;;;;;;;8.23;3.77;;;6.90;99.90;;;;;;5073480;28;20240;-76
2020/12/13 07:01:23;;;;;;;8.33;3.70;;;6.90;99.90;;;;;;5074086;28;20311;-75
2020/12/13 07:03:51;;;;;;;6.53;3.53;;;6.90;99.90;;;;;;5073299;28;20274;-75
2020/12/13 07:06:20;;;;;;;9.57;3.70;;;7.00;99.90;;;;;;5073609;28;20251;-75
2020/12/13 07:08:52;;;;;;;10.10;3.70;;;7.00;99.90;;;;;;5073331;28;20212;-75
2020/12/13 07:11:22;;;;;;;7.60;3.13;;;7.00;99.90;;;;;;5072778;28;20580;-75
2020/12/13 07:13:49;;;;;;;8.53;3.63;;;7.10;99.90;;;;;;5073742;28;20601;-76
2020/12/13 07:19:07;;;;;;;8.87;3.20;;;7.10;99.90;;;;;;5072805;28;20238;-76
2020/12/13 07:21:35;;;;;;;9.80;3.47;;;7.20;99.90;;;;;;5073724;28;20230;-75
2020/12/13 07:24:02;;;;;;;9.47;3.27;;;7.20;99.90;;;;;;5072208;28;20242;-76
2020/12/13 07:26:31;;;;;;;10.33;3.40;;;7.20;99.90;;;;;;5072706;28;20253;-75
2020/12/13 07:28:59;;;;;;;6.80;3.00;;;7.20;99.90;;;;;;5073367;28;20338;-75
2020/12/13 07:31:26;;;;;;;11.37;4.30;;;7.30;99.90;;;;;;5073307;28;20267;-75
2020/12/13 07:33:53;;;;;;;9.43;3.83;;;7.30;99.90;;;;;;5073022;28;20259;-75
2020/12/13 07:36:20;;;;;;;7.13;3.30;;;7.30;99.90;;;;;;5073215;28;20265;-76
2020/12/13 07:38:47;;;;;;;7.77;2.93;;;7.30;99.90;;;;;;5072934;28;20233;-76
2020/12/13 07:41:15;;;;;;;7.20;3.00;;;7.30;99.90;;;;;;5073039;28;20197;-76
2020/12/13 07:44:00;;;;;;;10.70;3.40;;;7.40;99.90;;;;;;5071173;28;20234;-76
2020/12/13 07:46:28;;;;;;;6.53;2.90;;;7.40;99.90;;;;;;5053069;28;20237;-76
2020/12/13 07:49:10;;;;;;;6.33;2.97;;;7.40;99.90;;;;;;5065381;28;20237;-76
2020/12/13 07:51:39;;;;;;;6.03;2.87;;;7.40;99.90;;;;;;5068996;28;20658;-75
2020/12/13 07:54:13;;;;;;;6.37;2.87;;;7.50;99.90;;;;;;5067000;28;20227;-76
2020/12/13 07:56:40;;;;;;;7.57;2.70;;;7.50;99.90;;;;;;5071753;28;20265;-76
2020/12/13 07:59:12;;;;;;;7.17;3.07;;;7.50;99.90;;;;;;5063037;28;20203;-75
2020/12/13 08:01:39;;;;;;;6.63;3.30;;;7.50;99.90;;;;;;5053283;28;20242;-76
2020/12/13 08:04:06;;;;;;;6.40;3.00;;;7.50;99.90;;;;;;5069429;28;20590;-75
2020/12/13 08:06:33;;;;;;;7.07;3.40;;;7.50;99.90;;;;;;5072826;28;20199;-76
2020/12/13 08:09:00;;;;;;;5.77;3.20;;;7.60;99.90;;;;;;5072790;28;20720;-76
2020/12/13 08:11:27;;;;;;;5.20;3.37;;;7.60;99.90;;;;;;5072547;28;20246;-76
2020/12/13 08:13:55;;;;;;;11.37;3.93;;;7.50;99.90;;;;;;5072525;28;20248;-76
2020/12/13 08:16:25;;;;;;;6.50;3.30;;;7.60;99.90;;;;;;5071701;28;20235;-75
2020/12/13 08:18:53;;;;;;;7.57;2.80;;;7.60;99.90;;;;;;5072568;28;20287;-76
2020/12/13 08:21:29;;;;;;;5.40;3.00;;;7.60;99.90;;;;;;5072274;28;20238;-76
2020/12/13 08:23:58;;;;;;;7.13;2.80;;;7.60;99.90;;;;;;5072133;28;20239;-75
2020/12/13 08:26:25;;;;;;;7.33;2.93;;;7.70;99.90;;;;;;5070450;28;20250;-76
2020/12/13 08:28:53;;;;;;;6.60;3.60;;;7.70;99.90;;;;;;5068993;28;20270;-75
2020/12/13 08:31:24;;;;;;;5.03;3.37;;;7.70;99.90;;;;;;5072010;28;20251;-75
2020/12/13 08:34:01;;;;;;;6.83;3.10;;;7.70;99.90;;;;;;5071975;28;20228;-76
2020/12/13 08:36:27;;;;;;;5.53;2.70;;;7.70;99.90;;;;;;5053846;28;20202;-76
2020/12/13 08:39:03;;;;;;;5.60;3.10;;;7.70;99.90;;;;;;5064922;28;20230;-76
2020/12/13 08:41:30;;;;;;;3.73;2.90;;;7.80;99.90;;;;;;5071899;28;20230;-76
2020/12/13 08:43:57;;;;;;;6.33;3.33;;;7.70;99.90;;;;;;5060591;28;20621;-76
2020/12/13 08:46:37;;;;;;;8.33;3.20;;;7.80;99.90;;;;;;5068223;28;20653;-76
2020/12/13 08:49:04;;;;;;;6.60;3.17;;;7.80;99.90;;;;;;5072498;28;20194;-75
2020/12/13 08:51:31;;;;;;;4.70;3.20;;;7.80;99.90;;;;;;5072036;28;20237;-75
2020/12/13 08:54:03;;;;;;;6.33;3.30;;;7.80;99.90;;;;;;5072510;28;20256;-76
2020/12/13 08:56:34;;;;;;;7.67;3.37;;;7.80;99.90;;;;;;5071746;28;20206;-74
2020/12/13 08:59:02;;;;;;;4.90;3.00;;;7.80;99.90;;;;;;5069091;28;20248;-76
2020/12/13 09:01:31;;;;;;;7.03;3.30;;;7.80;99.90;;;;;;5061244;28;20204;-76
2020/12/13 09:03:57;;;;;;;6.10;2.30;;;7.80;99.90;;;;;;5055364;28;20898;-76
2020/12/13 09:06:33;;;;;;;5.50;2.90;;;7.90;99.90;;;;;;5064598;28;20233;-76
2020/12/13 09:09:13;;;;;;;6.27;2.80;;;8.00;99.90;;;;;;5070233;28;20198;-76
2020/12/13 09:11:39;;;;;;;8.57;3.67;;;8.00;99.90;;;;;;5051561;28;20230;-76
2020/12/13 09:14:06;;;;;;;6.57;3.23;;;8.00;99.90;;;;;;5064641;28;20237;-76
2020/12/13 09:16:34;;;;;;;3.17;2.70;;;8.10;99.90;;;;;;5064138;28;20249;-76
2020/12/13 09:19:09;;;;;;;5.07;2.20;;;8.20;99.90;;;;;;5071102;28;20199;-74
2020/12/13 09:21:48;;;;;;;9.73;3.33;;;8.20;99.90;;;;;;5071768;28;20238;-76
2020/12/13 09:24:15;;;;;;;7.00;3.20;;;8.20;99.90;;;;;;5070649;28;20230;-76
2020/12/13 09:26:56;;;;;;;6.97;2.77;;;8.30;99.90;;;;;;5059988;28;20352;-76
2020/12/13 09:29:22;;;;;;;5.67;2.50;;;8.30;99.90;;;;;;5074561;28;20250;-76
2020/12/13 09:31:48;;;;;;;5.57;2.60;;;8.30;99.90;;;;;;5075509;28;20272;-76
2020/12/13 09:34:15;;;;;;;7.97;2.97;;;8.40;99.90;;;;;;5064558;28;20226;-76
2020/12/13 09:36:43;;;;;;;6.93;3.60;;;8.40;99.90;;;;;;5074299;28;20254;-76
2020/12/13 09:39:10;;;;;;;8.73;3.10;;;8.40;99.90;;;;;;5073982;28;20195;-76
2020/12/13 09:41:37;;;;;;;8.57;2.77;;;8.40;99.90;;;;;;5072498;28;20282;-76
2020/12/13 09:44:03;;;;;;;6.27;2.93;;;8.40;99.90;;;;;;5071071;28;20238;-76
2020/12/13 09:46:30;;;;;;;8.97;4.03;;;8.40;99.90;;;;;;5073627;28;20276;-76
2020/12/13 09:48:56;;;;;;;7.43;3.23;;;8.40;99.90;;;;;;5071995;28;20233;-77
2020/12/13 09:51:22;;;;;;;7.17;2.97;;;8.50;99.90;;;;;;5074537;28;20226;-75
2020/12/13 09:53:49;;;;;;;8.03;3.20;;;8.50;99.90;;;;;;5070589;28;20282;-75
2020/12/13 09:56:19;;;;;;;7.13;3.87;;;8.50;99.90;;;;;;5074872;28;20233;-74
2020/12/13 09:58:46;;;;;;;6.77;3.50;;;8.50;99.90;;;;;;5071488;28;20235;-74
2020/12/13 10:01:14;;;;;;;6.57;3.47;;;8.50;99.90;;;;;;5062234;28;20227;-74
2020/12/13 10:03:43;;;;;;;8.53;3.53;;;8.50;99.90;;;;;;5064147;28;20238;-74
2020/12/13 10:06:34;;;;;;;11.30;4.60;;;8.50;99.90;;;;;;5073086;28;20222;-75
2020/12/13 10:09:08;;;;;;;8.43;3.73;;;8.50;99.90;;;;;;5074393;28;20205;-75
2020/12/13 10:11:37;;;;;;;9.07;4.57;;;8.60;99.90;;;;;;5067843;28;20193;-74
2020/12/13 10:14:04;;;;;;;7.53;3.80;;;8.60;99.90;;;;;;5073836;28;20722;-74
2020/12/13 10:16:31;;;;;;;7.87;3.40;;;8.60;99.90;;;;;;5074685;28;20291;-75
2020/12/13 10:18:58;;;;;;;5.80;4.23;;;8.70;99.90;;;;;;5072730;28;20226;-75
2020/12/13 10:21:25;;;;;;;6.97;4.33;;;8.70;99.90;;;;;;5073300;28;20237;-75
2020/12/13 10:23:52;;;;;;;12.70;5.73;;;8.70;99.90;;;;;;5065103;28;20230;-75
2020/12/13 10:26:22;;;;;;;9.50;4.87;;;8.70;99.90;;;;;;5072728;28;20250;-74
2020/12/13 10:28:50;;;;;;;8.10;5.10;;;8.70;99.90;;;;;;5070773;28;20234;-75
2020/12/13 10:31:17;;;;;;;8.33;3.73;;;8.80;99.90;;;;;;5069485;28;20238;-75
2020/12/13 10:33:44;;;;;;;5.80;3.33;;;8.80;99.90;;;;;;5072513;28;20282;-75
2020/12/13 10:36:12;;;;;;;7.60;4.27;;;8.80;99.90;;;;;;5070208;28;20232;-76
2020/12/13 10:38:40;;;;;;;5.57;3.80;;;8.80;99.90;;;;;;5052588;28;20273;-76
2020/12/13 10:41:07;;;;;;;9.27;3.70;;;8.90;99.90;;;;;;5057515;28;20227;-74
2020/12/13 10:43:35;;;;;;;7.10;3.50;;;8.90;99.90;;;;;;5067908;28;20702;-75
2020/12/13 10:46:06;;;;;;;5.93;4.00;;;9.00;99.90;;;;;;5068245;28;20235;-75
2020/12/13 10:48:33;;;;;;;6.07;3.67;;;9.00;99.90;;;;;;5072088;28;20231;-75
2020/12/13 10:51:00;;;;;;;5.77;3.20;;;9.00;99.90;;;;;;5070767;28;20737;-74
2020/12/13 10:53:27;;;;;;;5.90;3.10;;;9.10;99.90;;;;;;5069662;28;20282;-74
2020/12/13 10:55:54;;;;;;;5.67;3.50;;;9.10;99.90;;;;;;5065802;28;20718;-74
2020/12/13 10:58:20;;;;;;;7.53;3.87;;;9.10;99.90;;;;;;5069772;28;20302;-75
2020/12/13 11:00:47;;;;;;;5.57;3.30;;;9.20;99.90;;;;;;5069096;28;20223;-75
2020/12/13 11:03:15;;;;;;;6.00;3.83;;;9.20;99.90;;;;;;5072197;28;20300;-75
2020/12/13 11:05:42;;;;;;;5.87;3.73;;;9.20;99.90;;;;;;5071498;28;20732;-74
2020/12/13 11:08:08;;;;;;;5.70;3.97;;;9.30;99.90;;;;;;5065742;28;20201;-75
2020/12/13 11:10:35;;;;;;;5.90;3.77;;;9.30;99.90;;;;;;5068572;28;20227;-76
2020/12/13 11:13:01;;;;;;;6.10;3.90;;;9.30;99.90;;;;;;5070460;28;20231;-74
2020/12/13 11:15:28;;;;;;;6.20;3.60;;;9.30;99.90;;;;;;5072124;28;20230;-74
2020/12/13 11:17:54;;;;;;;5.17;3.30;;;9.40;99.90;;;;;;5070507;28;20317;-74
2020/12/13 11:20:21;;;;;;;6.33;4.83;;;9.40;99.90;;;;;;5068417;28;20276;-75
2020/12/13 11:22:48;;;;;;;8.37;5.33;;;9.50;99.90;;;;;;5068335;28;20607;-74
2020/12/13 11:25:16;;;;;;;6.07;4.50;;;9.50;99.90;;;;;;5068665;28;20231;-75
2020/12/13 11:27:43;;;;;;;4.73;3.90;;;9.60;99.90;;;;;;5071229;28;20250;-75
2020/12/13 11:30:10;;;;;;;5.30;4.07;;;9.60;99.90;;;;;;5070574;28;20615;-76
2020/12/13 11:32:38;;;;;;;6.60;3.80;;;9.70;99.90;;;;;;5070544;28;20207;-76
2020/12/13 11:35:05;;;;;;;7.43;3.67;;;9.70;99.90;;;;;;5071537;28;20254;-76
2020/12/13 11:37:32;;;;;;;5.57;3.37;;;9.80;99.90;;;;;;5069239;28;20729;-76
2020/12/13 11:39:59;;;;;;;9.80;5.33;;;9.80;99.90;;;;;;5062682;28;20206;-76
2020/12/13 11:42:25;;;;;;;6.10;4.80;;;9.90;99.90;;;;;;5068618;28;20220;-75
2020/12/13 11:44:52;;;;;;;6.97;4.63;;;9.90;99.90;;;;;;5071164;28;20204;-75
2020/12/13 11:47:19;;;;;;;5.07;3.53;;;9.90;99.90;;;;;;5068680;28;20577;-75
2020/12/13 11:49:45;;;;;;;6.13;3.00;;;10.00;99.90;;;;;;5066849;28;20230;-75
2020/12/13 11:52:12;;;;;;;6.17;3.47;;;10.00;99.90;;;;;;5053116;28;20235;-76
2020/12/13 11:54:39;;;;;;;3.27;2.80;;;10.10;99.90;;;;;;5067395;28;20253;-76
2020/12/13 11:57:06;;;;;;;4.73;2.37;;;10.10;99.90;;;;;;5057336;28;20691;-75
2020/12/13 11:59:32;;;;;;;3.80;2.77;;;10.10;99.90;;;;;;5070651;28;20254;-75
2020/12/13 12:01:59;;;;;;;4.43;2.73;;;10.10;99.90;;;;;;5067180;28;20922;-76
2020/12/13 12:04:25;;;;;;;4.00;2.80;;;10.10;99.90;;;;;;5064484;28;20626;-76
2020/12/13 12:06:53;;;;;;;4.23;2.90;;;10.10;99.90;;;;;;5069223;28;20229;-76
2020/12/13 12:09:19;;;;;;;4.67;3.27;;;10.20;99.90;;;;;;5069100;28;20251;-76
2020/12/13 12:11:47;;;;;;;3.30;3.00;;;10.20;99.90;;;;;;5072484;28;20199;-76
2020/12/13 12:14:13;;;;;;;4.40;3.63;;;10.20;99.90;;;;;;5069366;28;20286;-76
2020/12/13 12:16:42;;;;;;;3.00;2.47;;;10.20;99.90;;;;;;5059840;28;20597;-76
2020/12/13 12:19:09;;;;;;;5.10;2.53;;;10.30;99.90;;;;;;5071944;28;20202;-76
2020/12/13 12:21:37;;;;;;;3.10;2.37;;;10.30;99.90;;;;;;5066253;28;20622;-76
2020/12/13 12:24:04;;;;;;;3.70;2.80;;;10.40;99.90;;;;;;5063364;28;20560;-76
2020/12/13 12:26:31;;;;;;;4.30;2.67;;;10.50;99.90;;;;;;5071164;28;20250;-76
2020/12/13 12:28:59;;;;;;;2.97;2.47;;;10.50;99.90;;;;;;5064918;28;20614;-76
2020/12/13 12:31:26;;;;;;;3.63;2.57;;;10.60;99.90;;;;;;5066306;28;20195;-76
2020/12/13 12:33:52;;;;;;;2.50;1.80;;;10.70;99.90;;;;;;5064835;28;20697;-76
2020/12/13 12:36:20;;;;;;;2.43;2.10;;;10.80;99.90;;;;;;5069657;28;20223;-75
2020/12/13 12:38:48;;;;;;;3.03;2.20;;;10.80;99.90;;;;;;5067217;28;20766;-76
2020/12/13 12:41:15;;;;;;;2.57;2.00;;;10.90;99.90;;;;;;5069048;28;20244;-76
2020/12/13 12:43:43;;;;;;;2.73;2.20;;;10.90;99.90;;;;;;5068844;28;20236;-75
2020/12/13 12:46:10;;;;;;;3.27;2.17;;;10.90;99.90;;;;;;5070729;28;20289;-76
2020/12/13 12:48:37;;;;;;;3.77;2.60;;;10.90;99.90;;;;;;5066986;28;20237;-76
2020/12/13 12:51:06;;;;;;;2.40;2.00;;;11.00;99.90;;;;;;5066381;28;20701;-76
2020/12/13 12:53:32;;;;;;;3.20;2.43;;;11.00;99.90;;;;;;5067244;28;20207;-76
2020/12/13 12:55:59;;;;;;;2.30;2.10;;;11.00;99.90;;;;;;5069928;28;20222;-76
2020/12/13 12:58:28;;;;;;;2.53;2.23;;;11.00;99.90;;;;;;5066623;28;20675;-75
2020/12/13 13:00:56;;;;;;;3.57;1.93;;;11.10;99.90;;;;;;5063225;28;20206;-76